دوحة, Qatar

05:44 PM AST on لبراêر 28, 2017 (GMT +0300)
Doha International | | Change Station

Elev 33 ft 25.25 °N, 51.57 °E | Updated 44 minutes ago

Clear
صافية
70 °F
Feels Like 70 °F
N
10
ريح متغير ريح from شمال

هذا اليوم
High -- | Low -- °F
--% Chance of Precip.
Yesterday
High -- | Low -- °F
Precip. -- في
الضغط 30.06 في
وضوح الرؤية -9999.0 أميال
سحابات
نقطة الندى 54 °F
الرطوبة 56%
Rainfall 0.00 في
عمق الثلج Not available.
5:57 AM 5:35 PM
الهلال الأول, 5% visible
METAR OTBD 281400Z 36009KT CAVOK 21/12 Q1018 NOSIG
الضغط 30.06 في
وضوح الرؤية -9999.0 أميال
سحابات
نقطة الندى 54 °F
الرطوبة 56%
Rainfall 0.00 في
عمق الثلج Not available.
5:57 AM 5:35 PM
الهلال الأول, 5% visible
METAR OTBD 281400Z 36009KT CAVOK 21/12 Q1018 NOSIG

Get Your Daily Forecast Email!

Thanks for signing up!

Be on the lookout for a verification email in your inbox.

You'll start receiving the daily forecast at 8 AM.

×

10-Day Weather Forecast

No radar image for this location.
×

Almanac

علم الفلك

Feb. 28, 2017 Rise Set
Actual Time
Civil Twilight
Nautical Twilight
Astronomical Twilight
قمر
Length Of Visible Light
طول الیوم
Tomorrow will be .
, % of the Moon is Illuminated

Today's Extremes

Country Highs Country Lows

Community

WunderPhotos

Upload Photos

1,962,540 photos uploaded!

WunderBlog® & News

Nearby

جودة الهواء

  جودة الهواء AQ Index Pollutant
Not available.

عمق الثلج

Station Depth Elevation

Earthquake Activity

City Distance Mag. Time & Date
Minimum magnitude displayed is 2.5.

Coastal Water Temperatures

مكان درجات الحرارة

Stations

Nearby Weather Stations

Station Location الحرارة رياح باردة نقطة الندى الرطوبة ريح Precip. Elev تحديث Type